createdAt,value
2022-12-14T00:01:28.080Z,80.56
2022-12-14T00:03:55.652Z,80.70
2022-12-14T00:06:32.612Z,80.96
2022-12-14T00:09:01.833Z,80.91
2022-12-14T00:11:28.714Z,80.51
2022-12-14T00:14:00.766Z,80.86
2022-12-14T00:16:30.035Z,80.76
2022-12-14T00:18:58.326Z,80.36
2022-12-14T00:21:25.959Z,80.55
2022-12-14T00:23:53.880Z,80.50
2022-12-14T00:26:26.027Z,80.35
2022-12-14T00:28:54.943Z,80.09
2022-12-14T00:31:22.759Z,80.07
2022-12-14T00:33:50.383Z,80.13
2022-12-14T00:36:17.140Z,79.97
2022-12-14T00:38:44.094Z,80.16
2022-12-14T00:41:10.909Z,80.39
2022-12-14T00:43:37.763Z,80.56
2022-12-14T00:46:04.678Z,80.41
2022-12-14T00:48:32.145Z,80.16
2022-12-14T00:50:58.891Z,80.23
2022-12-14T00:53:26.002Z,80.02
2022-12-14T00:55:52.757Z,79.53
2022-12-14T00:58:21.818Z,79.77
2022-12-14T01:00:58.583Z,80.55
2022-12-14T01:03:25.477Z,79.97
2022-12-14T01:05:52.103Z,79.67
2022-12-14T01:08:20.193Z,79.94
2022-12-14T01:10:46.615Z,79.91
2022-12-14T01:13:13.250Z,79.98
2022-12-14T01:15:39.748Z,79.77
2022-12-14T01:18:06.233Z,79.82
2022-12-14T01:20:32.681Z,80.21
2022-12-14T01:22:59.153Z,79.88
2022-12-14T01:25:25.969Z,79.98
2022-12-14T01:27:52.428Z,79.95
2022-12-14T01:30:19.384Z,79.63
2022-12-14T01:32:46.758Z,80.01
2022-12-14T01:35:13.186Z,79.50
2022-12-14T01:37:39.731Z,79.87
2022-12-14T01:40:06.485Z,79.70
2022-12-14T01:42:35.823Z,80.01
2022-12-14T01:45:02.239Z,79.41
2022-12-14T01:47:30.547Z,79.16
2022-12-14T01:50:09.940Z,79.83
2022-12-14T01:52:46.922Z,79.77
2022-12-14T01:55:42.171Z,79.85
2022-12-14T01:58:18.742Z,79.16
2022-12-14T02:00:45.769Z,79.17
2022-12-14T02:03:23.844Z,79.36
2022-12-14T02:05:59.370Z,79.26
2022-12-14T02:08:27.136Z,79.53
2022-12-14T02:10:55.303Z,79.37
2022-12-14T02:13:26.772Z,79.07
2022-12-14T02:15:53.752Z,79.33
2022-12-14T02:18:26.193Z,79.63
2022-12-14T02:21:12.955Z,79.42
2022-12-14T02:24:23.055Z,79.34
2022-12-14T02:27:12.528Z,79.51
2022-12-14T02:29:59.137Z,79.38
2022-12-14T02:32:40.224Z,79.24
2022-12-14T02:35:27.098Z,79.24
2022-12-14T02:38:12.648Z,79.25
2022-12-14T02:40:42.218Z,79.04
2022-12-14T02:43:32.786Z,79.49
2022-12-14T02:46:27.494Z,79.80
2022-12-14T02:49:03.094Z,79.46
2022-12-14T02:51:57.260Z,79.75
2022-12-14T02:54:37.904Z,80.28
2022-12-14T02:57:14.119Z,80.11
2022-12-14T02:59:42.630Z,80.21
2022-12-14T03:02:11.144Z,80.05
2022-12-14T03:04:45.790Z,79.94
2022-12-14T03:07:34.187Z,80.47
2022-12-14T03:10:09.209Z,79.62
2022-12-14T03:12:40.293Z,79.64
2022-12-14T03:15:10.279Z,79.74
2022-12-14T03:17:38.524Z,79.30
2022-12-14T03:20:13.044Z,78.91
2022-12-14T03:22:46.394Z,78.78
2022-12-14T03:25:16.953Z,78.70
2022-12-14T03:27:53.860Z,79.20
2022-12-14T03:30:43.756Z,78.52
2022-12-14T03:33:15.616Z,78.87
2022-12-14T03:35:59.850Z,79.10
2022-12-14T03:38:39.084Z,78.87
2022-12-14T03:41:29.607Z,79.49
2022-12-14T03:44:13.427Z,78.68
2022-12-14T03:46:57.540Z,79.70
2022-12-14T03:49:47.339Z,79.09
2022-12-14T03:52:25.961Z,78.96
2022-12-14T03:55:04.525Z,78.81
2022-12-14T03:58:00.833Z,79.39
2022-12-14T04:00:31.863Z,78.40
2022-12-14T04:03:15.306Z,79.09
2022-12-14T04:06:04.943Z,79.23
2022-12-14T04:09:03.681Z,79.16
2022-12-14T04:11:55.327Z,78.88
2022-12-14T04:14:47.677Z,78.63
2022-12-14T04:17:38.605Z,78.34
2022-12-14T04:20:05.083Z,78.37
2022-12-14T04:22:38.085Z,78.06
2022-12-14T04:25:30.416Z,77.97
2022-12-14T04:28:32.115Z,78.57
2022-12-14T04:31:04.121Z,77.95
2022-12-14T04:33:47.759Z,77.97
2022-12-14T04:36:28.199Z,78.72
2022-12-14T04:39:00.226Z,77.61
2022-12-14T04:41:31.546Z,78.31
2022-12-14T04:44:02.058Z,77.72
2022-12-14T04:46:36.309Z,77.93
2022-12-14T04:49:29.262Z,78.21
2022-12-14T04:52:05.464Z,78.20
2022-12-14T04:54:45.141Z,78.08
2022-12-14T04:57:21.206Z,78.02
2022-12-14T04:59:48.680Z,77.80
2022-12-14T05:02:21.208Z,77.74
2022-12-14T05:05:10.932Z,78.53
2022-12-14T05:08:06.346Z,78.24
2022-12-14T05:10:37.850Z,78.67
2022-12-14T05:13:26.295Z,78.51
2022-12-14T05:15:56.057Z,78.23
2022-12-14T05:18:23.027Z,78.57
2022-12-14T05:20:50.647Z,78.66
2022-12-14T05:23:17.384Z,78.90
2022-12-14T05:25:43.984Z,78.94
2022-12-14T05:28:14.775Z,78.84
2022-12-14T05:30:41.209Z,78.48
2022-12-14T05:33:16.149Z,78.49
2022-12-14T05:35:42.539Z,78.87
2022-12-14T05:38:10.058Z,78.58
2022-12-14T05:40:36.522Z,78.32
2022-12-14T05:43:07.052Z,78.89
2022-12-14T05:45:33.473Z,78.63
2022-12-14T05:47:59.904Z,78.95
2022-12-14T05:50:26.571Z,78.52
2022-12-14T05:52:53.083Z,78.26
2022-12-14T05:55:19.550Z,78.09
2022-12-14T05:57:45.915Z,78.43
2022-12-14T06:00:12.659Z,78.75
2022-12-14T06:02:39.253Z,78.62
2022-12-14T06:05:05.946Z,78.83
2022-12-14T06:07:32.502Z,78.52
2022-12-14T06:09:58.921Z,78.56
2022-12-14T06:12:26.093Z,78.41
2022-12-14T06:14:52.680Z,78.56
2022-12-14T06:17:19.109Z,78.54
2022-12-14T06:19:49.630Z,78.93
2022-12-14T06:22:17.073Z,79.41
2022-12-14T06:24:43.476Z,79.02
2022-12-14T06:27:09.899Z,78.90
2022-12-14T06:29:36.454Z,79.15
2022-12-14T06:32:02.893Z,78.84
2022-12-14T06:34:32.828Z,79.20
2022-12-14T06:37:01.710Z,79.03
2022-12-14T06:39:28.739Z,78.69
2022-12-14T06:41:55.195Z,78.75
2022-12-14T06:44:21.583Z,78.62
2022-12-14T06:46:48.141Z,78.89
2022-12-14T06:49:15.880Z,78.34
2022-12-14T06:51:43.234Z,78.49
2022-12-14T06:54:12.179Z,78.95
2022-12-14T06:56:39.012Z,78.45
2022-12-14T06:59:05.547Z,78.46
2022-12-14T07:01:32.612Z,78.20
2022-12-14T07:03:59.653Z,78.21
2022-12-14T07:06:28.667Z,78.18
2022-12-14T07:08:57.190Z,78.04
2022-12-14T07:11:24.957Z,78.08
2022-12-14T07:13:51.404Z,78.48
2022-12-14T07:16:20.951Z,78.05
2022-12-14T07:18:47.815Z,78.23
2022-12-14T07:21:16.841Z,78.12
2022-12-14T07:23:45.190Z,78.13
2022-12-14T07:26:23.836Z,78.74
2022-12-14T07:28:50.744Z,78.26
2022-12-14T07:31:19.971Z,78.86
2022-12-14T07:33:46.978Z,79.00
2022-12-14T07:36:16.769Z,78.89
2022-12-14T07:38:45.169Z,78.91
2022-12-14T07:41:17.734Z,79.13
2022-12-14T07:43:49.742Z,79.44
2022-12-14T07:46:19.464Z,79.46
2022-12-14T07:48:47.750Z,79.29
2022-12-14T07:51:16.724Z,79.10
2022-12-14T07:53:43.732Z,79.34
2022-12-14T07:56:18.625Z,79.86
2022-12-14T07:58:45.467Z,79.19
2022-12-14T08:01:13.714Z,79.55
2022-12-14T08:03:42.106Z,79.78
2022-12-14T08:06:10.572Z,79.57
2022-12-14T08:08:37.108Z,79.16
2022-12-14T08:11:04.441Z,80.04
2022-12-14T08:13:32.244Z,79.97
2022-12-14T08:16:12.351Z,80.48
2022-12-14T08:18:39.292Z,80.18
2022-12-14T08:21:07.875Z,80.10
2022-12-14T08:23:35.370Z,80.43
2022-12-14T08:26:03.003Z,79.86
2022-12-14T08:28:31.231Z,80.26
2022-12-14T08:30:58.752Z,79.75
2022-12-14T08:33:25.237Z,79.76
2022-12-14T08:35:51.844Z,79.93
2022-12-14T08:38:18.234Z,79.37
2022-12-14T08:40:44.638Z,79.60
2022-12-14T08:43:11.064Z,79.75
2022-12-14T08:45:37.562Z,80.17
2022-12-14T08:48:04.270Z,80.06
2022-12-14T08:50:31.263Z,80.57
2022-12-14T08:52:57.682Z,80.72
2022-12-14T08:55:29.117Z,80.64
2022-12-14T08:57:58.266Z,80.96
2022-12-14T09:00:24.725Z,80.76
2022-12-14T09:02:51.862Z,81.16
2022-12-14T09:05:18.441Z,81.04
2022-12-14T09:07:45.499Z,80.99
2022-12-14T09:10:12.719Z,81.06
2022-12-14T09:12:39.551Z,81.37
2022-12-14T09:15:07.161Z,81.35
2022-12-14T09:17:34.433Z,81.15
2022-12-14T09:20:00.828Z,81.36
2022-12-14T09:22:27.336Z,81.57
2022-12-14T09:24:54.540Z,81.17
2022-12-14T09:27:22.358Z,81.34
2022-12-14T09:29:49.706Z,81.12
2022-12-14T09:32:16.311Z,80.84
2022-12-14T09:34:42.751Z,81.15
2022-12-14T09:37:09.271Z,81.02
2022-12-14T09:39:36.441Z,80.91
2022-12-14T09:42:26.018Z,81.35
2022-12-14T09:45:17.195Z,80.95
2022-12-14T09:47:57.555Z,81.28
2022-12-14T09:50:24.197Z,81.03
2022-12-14T09:53:05.109Z,81.10
2022-12-14T09:55:36.931Z,81.33
2022-12-14T09:58:03.277Z,81.01
2022-12-14T10:00:46.927Z,81.36
2022-12-14T10:03:32.157Z,81.38
2022-12-14T10:06:15.582Z,81.43
2022-12-14T10:08:57.881Z,81.21
2022-12-14T10:11:44.894Z,81.09
2022-12-14T10:14:20.375Z,80.14
2022-12-14T10:17:08.206Z,80.68
2022-12-14T10:19:44.501Z,79.31
2022-12-14T10:22:16.020Z,79.18
2022-12-14T10:24:46.268Z,79.24
2022-12-14T10:27:17.514Z,80.13
2022-12-14T10:29:49.630Z,78.34
2022-12-14T10:32:21.895Z,77.95
2022-12-14T10:34:51.666Z,76.73
2022-12-14T10:37:26.065Z,78.18
2022-12-14T10:40:32.592Z,77.62
2022-12-14T10:43:22.668Z,75.23
2022-12-14T10:46:13.765Z,74.06
2022-12-14T10:48:49.152Z,73.48
2022-12-14T10:51:24.455Z,71.44
2022-12-14T10:54:20.776Z,72.47
2022-12-14T10:56:50.004Z,69.86
2022-12-14T10:59:23.877Z,70.17
2022-12-14T11:02:01.031Z,70.59
2022-12-14T11:04:32.115Z,68.20
2022-12-14T11:07:19.684Z,70.03
2022-12-14T11:09:46.611Z,67.40
2022-12-14T11:12:13.147Z,67.10
2022-12-14T11:14:52.764Z,68.16
2022-12-14T11:17:40.069Z,68.03
2022-12-14T11:20:24.215Z,67.42
2022-12-14T11:23:05.123Z,65.66
2022-12-14T11:25:47.137Z,65.80
2022-12-14T11:28:49.871Z,65.75
2022-12-14T11:31:26.502Z,64.05
2022-12-14T11:33:58.255Z,64.08
2022-12-14T11:36:30.225Z,62.19
2022-12-14T11:39:07.224Z,59.20
2022-12-14T11:41:36.946Z,59.21
2022-12-14T11:44:13.890Z,58.73
2022-12-14T11:46:44.974Z,56.90
2022-12-14T11:49:33.928Z,57.80
2022-12-14T11:52:15.245Z,58.31
2022-12-14T11:54:49.951Z,56.89
2022-12-14T11:57:28.118Z,57.40
2022-12-14T12:00:00.223Z,56.47
2022-12-14T12:02:33.597Z,56.06
2022-12-14T12:05:07.600Z,54.69
2022-12-14T12:07:37.617Z,54.85
2022-12-14T12:10:19.438Z,55.58
2022-12-14T12:12:52.411Z,54.42
2022-12-14T12:15:32.481Z,54.05
2022-12-14T12:18:08.306Z,50.79
2022-12-14T12:20:34.807Z,50.77
2022-12-14T12:23:15.509Z,51.69
2022-12-14T12:25:44.924Z,50.46
2022-12-14T12:28:30.594Z,51.39
2022-12-14T12:31:09.007Z,50.14
2022-12-14T12:34:00.951Z,50.94
2022-12-14T12:36:27.418Z,54.97
2022-12-14T12:39:05.549Z,52.27
2022-12-14T12:41:50.623Z,47.19
2022-12-14T12:44:35.870Z,50.30
2022-12-14T12:47:25.177Z,49.03
2022-12-14T12:49:53.035Z,47.57
2022-12-14T12:52:27.388Z,48.10
2022-12-14T12:55:30.687Z,51.00
2022-12-14T12:58:01.824Z,48.54
2022-12-14T13:00:31.194Z,48.55
2022-12-14T13:03:09.943Z,48.13
2022-12-14T13:05:48.709Z,48.81
2022-12-14T13:08:32.709Z,50.36
2022-12-14T13:11:24.992Z,47.88
2022-12-14T13:13:56.425Z,48.31
2022-12-14T13:16:29.937Z,49.27
2022-12-14T13:19:25.427Z,49.30
2022-12-14T13:21:52.322Z,47.49
2022-12-14T13:24:21.517Z,47.39
2022-12-14T13:27:15.484Z,48.40
2022-12-14T13:30:04.914Z,47.75
2022-12-14T13:32:37.444Z,46.73
2022-12-14T13:35:04.185Z,47.88
2022-12-14T13:37:44.026Z,46.66
2022-12-14T13:40:44.801Z,49.54
2022-12-14T13:43:55.660Z,46.17
2022-12-14T13:46:25.165Z,45.40
2022-12-14T13:48:55.373Z,46.45
2022-12-14T13:51:32.581Z,48.08
2022-12-14T13:54:03.362Z,47.78
2022-12-14T13:56:34.355Z,47.84
2022-12-14T13:59:05.290Z,49.05
2022-12-14T14:01:47.418Z,50.69
2022-12-14T14:04:17.105Z,50.26
2022-12-14T14:06:47.413Z,49.84
2022-12-14T14:09:34.020Z,52.69
2022-12-14T14:12:01.774Z,51.14
2022-12-14T14:14:43.477Z,51.67
2022-12-14T14:17:34.763Z,52.45
2022-12-14T14:20:07.172Z,52.08
2022-12-14T14:22:33.534Z,52.36
2022-12-14T14:25:23.676Z,53.10
2022-12-14T14:27:51.228Z,53.83
2022-12-14T14:30:37.112Z,54.70
2022-12-14T14:33:46.062Z,55.46
2022-12-14T14:36:33.527Z,55.94
2022-12-14T14:39:24.476Z,57.07
2022-12-14T14:41:54.381Z,56.98
2022-12-14T14:44:43.786Z,57.57
2022-12-14T14:47:31.600Z,58.40
2022-12-14T14:50:01.894Z,58.75
2022-12-14T14:52:37.470Z,59.11
2022-12-14T14:58:46.638Z,59.72
2022-12-14T15:01:21.030Z,60.54
2022-12-14T15:03:55.546Z,60.79
2022-12-14T15:06:26.515Z,61.58
2022-12-14T15:09:09.453Z,61.88
2022-12-14T15:11:57.090Z,62.01
2022-12-14T15:14:48.468Z,62.58
2022-12-14T15:17:21.800Z,62.47
2022-12-14T15:19:50.061Z,62.81
2022-12-14T15:22:19.831Z,63.03
2022-12-14T15:24:49.222Z,64.23
2022-12-14T15:27:27.316Z,64.84
2022-12-14T15:30:05.837Z,65.13
2022-12-14T15:32:33.044Z,65.58
2022-12-14T15:35:06.916Z,65.97
2022-12-14T15:37:48.913Z,65.89
2022-12-14T15:40:24.155Z,65.70
2022-12-14T15:42:56.907Z,66.17
2022-12-14T15:45:27.891Z,66.92
2022-12-14T15:47:54.824Z,66.36
2022-12-14T15:50:25.631Z,67.13
2022-12-14T15:52:55.725Z,67.78
2022-12-14T15:55:32.336Z,67.02
2022-12-14T15:58:08.050Z,67.89
2022-12-14T16:00:39.439Z,68.30
2022-12-14T16:03:25.278Z,68.53
2022-12-14T16:05:52.236Z,68.73
2022-12-14T16:08:20.915Z,68.98
2022-12-14T16:10:51.178Z,69.23
2022-12-14T16:13:17.551Z,69.38
2022-12-14T16:15:46.121Z,69.50
2022-12-14T16:18:17.819Z,69.80
2022-12-14T16:20:54.846Z,69.84
2022-12-14T16:23:27.745Z,69.84
2022-12-14T16:25:58.888Z,69.67
2022-12-14T16:28:29.056Z,69.70
2022-12-14T16:31:00.362Z,70.26
2022-12-14T16:33:27.886Z,70.28
2022-12-14T16:36:03.669Z,71.03
2022-12-14T16:38:31.272Z,70.56
2022-12-14T16:41:01.590Z,70.79
2022-12-14T16:43:31.222Z,71.08
2022-12-14T16:46:03.859Z,70.84
2022-12-14T16:48:40.170Z,71.19
2022-12-14T16:51:17.992Z,71.12
2022-12-14T16:53:59.255Z,71.42
2022-12-14T16:56:45.347Z,71.36
2022-12-14T16:59:33.783Z,72.16
2022-12-14T17:02:00.403Z,71.96
2022-12-14T17:04:37.490Z,72.18
2022-12-14T17:07:04.142Z,72.42
2022-12-14T17:09:33.291Z,72.20
2022-12-14T17:12:02.693Z,72.29
2022-12-14T17:14:29.195Z,72.09
2022-12-14T17:17:01.784Z,72.67
2022-12-14T17:19:39.238Z,73.40
2022-12-14T17:22:14.946Z,73.30
2022-12-14T17:24:41.371Z,72.88
2022-12-14T17:27:07.749Z,73.34
2022-12-14T17:29:34.209Z,73.04
2022-12-14T17:32:03.300Z,73.14
2022-12-14T17:34:30.217Z,73.59
2022-12-14T17:36:57.003Z,73.75
2022-12-14T17:39:24.748Z,73.92
2022-12-14T17:41:51.372Z,73.56
2022-12-14T17:44:20.189Z,73.98
2022-12-14T17:46:50.492Z,73.68
2022-12-14T17:49:33.714Z,74.08
2022-12-14T17:52:04.841Z,74.05
2022-12-14T17:54:32.231Z,73.86
2022-12-14T17:56:59.999Z,74.25
2022-12-14T17:59:26.814Z,74.87
2022-12-14T18:01:53.327Z,74.89
2022-12-14T18:04:19.844Z,74.97
2022-12-14T18:06:46.239Z,75.24
2022-12-14T18:09:13.057Z,75.53
2022-12-14T18:12:00.311Z,75.61
2022-12-14T18:14:25.909Z,75.66
2022-12-14T18:16:52.333Z,76.01
2022-12-14T18:19:19.845Z,76.39
2022-12-14T18:21:46.259Z,76.61
2022-12-14T18:24:16.309Z,77.18
2022-12-14T18:26:44.839Z,77.23
2022-12-14T18:29:14.160Z,77.74
2022-12-14T18:31:40.839Z,77.69
2022-12-14T18:34:07.396Z,78.04
2022-12-14T18:36:33.815Z,77.79
2022-12-14T18:39:01.070Z,77.64
2022-12-14T18:41:32.323Z,77.59
2022-12-14T18:44:00.498Z,77.57
2022-12-14T18:46:27.765Z,78.06
2022-12-14T18:48:54.349Z,77.58
2022-12-14T18:51:23.581Z,77.51
2022-12-14T18:53:50.789Z,77.37
2022-12-14T18:56:17.847Z,77.19
2022-12-14T18:58:45.447Z,77.51
2022-12-14T19:01:16.172Z,77.19
2022-12-14T19:03:43.918Z,77.26
2022-12-14T19:09:02.105Z,76.63
2022-12-14T19:11:40.582Z,76.99
2022-12-14T19:14:07.184Z,76.32
2022-12-14T19:16:33.932Z,76.29
2022-12-14T19:19:00.792Z,75.90
2022-12-14T19:21:29.285Z,75.86
2022-12-14T19:23:56.017Z,76.16
2022-12-14T19:26:22.662Z,76.40
2022-12-14T19:28:49.095Z,76.06
2022-12-14T19:31:15.567Z,76.35
2022-12-14T19:33:42.031Z,76.46
2022-12-14T19:36:09.280Z,76.24
2022-12-14T19:38:37.008Z,76.13
2022-12-14T19:41:06.860Z,76.33
2022-12-14T19:43:34.501Z,76.07
2022-12-14T19:46:08.714Z,76.71
2022-12-14T19:48:35.311Z,76.48
2022-12-14T19:51:10.653Z,76.45
2022-12-14T19:53:38.174Z,76.45
2022-12-14T19:56:05.483Z,76.47
2022-12-14T19:58:32.411Z,76.35
2022-12-14T20:00:59.064Z,76.51
2022-12-14T20:03:25.700Z,76.76
2022-12-14T20:05:58.449Z,76.64
2022-12-14T20:08:26.257Z,76.34
2022-12-14T20:10:53.116Z,76.76
2022-12-14T20:13:20.243Z,76.52
2022-12-14T20:15:54.902Z,76.63
2022-12-14T20:18:22.591Z,76.42
2022-12-14T20:20:50.226Z,76.82
2022-12-14T20:23:21.950Z,76.39
2022-12-14T20:25:49.315Z,76.57
2022-12-14T20:28:15.800Z,76.98
2022-12-14T20:30:44.158Z,77.31
2022-12-14T20:33:10.685Z,77.96
2022-12-14T20:35:37.379Z,77.80
2022-12-14T20:38:03.827Z,78.35
2022-12-14T20:40:34.962Z,79.02
2022-12-14T20:43:03.011Z,79.99
2022-12-14T20:45:29.440Z,79.95
2022-12-14T20:47:55.883Z,80.92
2022-12-14T20:50:22.352Z,81.11
2022-12-14T20:52:49.125Z,81.76
2022-12-14T20:55:15.846Z,82.05
2022-12-14T20:57:42.311Z,82.35
2022-12-14T21:00:09.590Z,81.81
2022-12-14T21:02:36.236Z,82.14
2022-12-14T21:05:02.774Z,81.60
2022-12-14T21:07:31.256Z,81.54
2022-12-14T21:09:57.692Z,81.44
2022-12-14T21:12:24.473Z,80.67
2022-12-14T21:14:53.507Z,80.27
2022-12-14T21:17:22.017Z,80.57
2022-12-14T21:19:48.560Z,80.00
2022-12-14T21:22:17.473Z,80.36
2022-12-14T21:25:02.344Z,79.94
2022-12-14T21:27:32.707Z,79.51
2022-12-14T21:30:00.464Z,79.72
2022-12-14T21:32:27.514Z,79.18
2022-12-14T21:34:54.120Z,79.25
2022-12-14T21:37:20.812Z,79.06
2022-12-14T21:39:53.873Z,78.51
2022-12-14T21:42:22.013Z,78.45
2022-12-14T21:44:50.668Z,78.21
2022-12-14T21:47:22.948Z,78.13
2022-12-14T21:49:49.386Z,77.96
2022-12-14T21:52:19.634Z,77.92
2022-12-14T21:54:46.234Z,78.39
2022-12-14T21:57:38.528Z,78.10
2022-12-14T22:00:07.955Z,78.49
2022-12-14T22:02:34.752Z,78.99
2022-12-14T22:05:01.311Z,78.97
2022-12-14T22:07:32.965Z,78.94
2022-12-14T22:09:59.769Z,78.95
2022-12-14T22:12:26.455Z,78.63
2022-12-14T22:14:53.097Z,79.01
2022-12-14T22:17:19.604Z,78.85
2022-12-14T22:19:46.222Z,78.55
2022-12-14T22:22:15.230Z,78.46
2022-12-14T22:24:42.567Z,77.75
2022-12-14T22:27:12.820Z,77.54
2022-12-14T22:29:39.621Z,77.42
2022-12-14T22:32:07.148Z,77.18
2022-12-14T22:34:33.799Z,76.85
2022-12-14T22:37:00.203Z,77.00
2022-12-14T22:39:26.619Z,76.94
2022-12-14T22:41:53.038Z,76.82
2022-12-14T22:44:19.453Z,76.52
2022-12-14T22:46:46.049Z,76.55
2022-12-14T22:49:16.782Z,76.51
2022-12-14T22:51:43.228Z,75.99
2022-12-14T22:54:11.400Z,76.19
2022-12-14T22:56:48.601Z,76.48
2022-12-14T22:59:20.371Z,76.17
2022-12-14T23:01:50.687Z,75.89
2022-12-14T23:04:17.735Z,75.67
2022-12-14T23:06:44.848Z,76.07
2022-12-14T23:09:29.853Z,75.88
2022-12-14T23:12:19.686Z,75.99
2022-12-14T23:15:06.531Z,75.45
2022-12-14T23:17:51.494Z,75.78
2022-12-14T23:20:36.254Z,75.92
2022-12-14T23:23:25.152Z,76.01
2022-12-14T23:26:09.834Z,76.41
2022-12-14T23:28:55.123Z,76.20
2022-12-14T23:31:40.671Z,75.94
2022-12-14T23:34:25.616Z,76.14
2022-12-14T23:37:13.757Z,76.52
2022-12-14T23:40:01.471Z,76.79
2022-12-14T23:42:46.335Z,76.96
2022-12-14T23:45:31.413Z,77.41
2022-12-14T23:48:16.290Z,77.67
2022-12-14T23:51:01.547Z,78.31
2022-12-14T23:53:50.077Z,78.31
2022-12-14T23:56:35.578Z,78.83
2022-12-14T23:59:20.349Z,79.08
